sensor_id;sensor_type;location;lat;lon;timestamp;pressure;altitude;pressure_sealevel;temperature;humidity
32197;BME280;18697;42.770;23.400;2023-01-15T00:01:37;96087.53;;;6.89;73.51
32197;BME280;18697;42.770;23.400;2023-01-15T00:04:04;96080.28;;;6.79;73.57
32197;BME280;18697;42.770;23.400;2023-01-15T00:06:34;96078.22;;;6.83;73.63
32197;BME280;18697;42.770;23.400;2023-01-15T00:09:00;96079.78;;;6.84;73.46
32197;BME280;18697;42.770;23.400;2023-01-15T00:11:25;96082.19;;;6.82;73.27
32197;BME280;18697;42.770;23.400;2023-01-15T00:13:51;96075.81;;;6.85;73.27
32197;BME280;18697;42.770;23.400;2023-01-15T00:16:20;96079.97;;;6.93;73.00
32197;BME280;18697;42.770;23.400;2023-01-15T00:18:53;96085.41;;;6.97;72.95
32197;BME280;18697;42.770;23.400;2023-01-15T00:21:19;96079.72;;;7.04;72.85
32197;BME280;18697;42.770;23.400;2023-01-15T00:23:45;96088.78;;;7.05;72.63
32197;BME280;18697;42.770;23.400;2023-01-15T00:26:30;96089.75;;;7.14;72.13
32197;BME280;18697;42.770;23.400;2023-01-15T00:29:16;96093.28;;;7.15;71.84
32197;BME280;18697;42.770;23.400;2023-01-15T00:31:42;96086.28;;;7.10;71.88
32197;BME280;18697;42.770;23.400;2023-01-15T00:34:08;96087.41;;;7.13;71.74
32197;BME280;18697;42.770;23.400;2023-01-15T00:36:33;96098.47;;;7.13;71.64
32197;BME280;18697;42.770;23.400;2023-01-15T00:38:59;96085.44;;;7.13;72.00
32197;BME280;18697;42.770;23.400;2023-01-15T00:41:25;96080.84;;;7.07;71.83
32197;BME280;18697;42.770;23.400;2023-01-15T00:43:50;96080.38;;;6.92;71.94
32197;BME280;18697;42.770;23.400;2023-01-15T00:46:17;96080.22;;;6.99;72.35
32197;BME280;18697;42.770;23.400;2023-01-15T00:48:43;96074.28;;;7.01;72.29
32197;BME280;18697;42.770;23.400;2023-01-15T00:51:08;96072.28;;;7.01;72.25
32197;BME280;18697;42.770;23.400;2023-01-15T00:53:33;96070.66;;;7.04;72.32
32197;BME280;18697;42.770;23.400;2023-01-15T00:55:59;96080.94;;;7.03;72.05
32197;BME280;18697;42.770;23.400;2023-01-15T00:58:24;96077.72;;;7.05;71.90
32197;BME280;18697;42.770;23.400;2023-01-15T01:00:57;96083.09;;;7.12;71.84
32197;BME280;18697;42.770;23.400;2023-01-15T01:03:25;96080.06;;;7.06;72.22
32197;BME280;18697;42.770;23.400;2023-01-15T01:05:50;96083.34;;;7.01;72.11
32197;BME280;18697;42.770;23.400;2023-01-15T01:08:15;96089.09;;;6.90;72.39
32197;BME280;18697;42.770;23.400;2023-01-15T01:10:41;96080.56;;;6.85;72.93
32197;BME280;18697;42.770;23.400;2023-01-15T01:13:07;96068.03;;;6.80;72.87
32197;BME280;18697;42.770;23.400;2023-01-15T01:15:33;96078.38;;;6.76;73.29
32197;BME280;18697;42.770;23.400;2023-01-15T01:17:59;96077.16;;;6.77;73.34
32197;BME280;18697;42.770;23.400;2023-01-15T01:20:25;96085.03;;;6.79;73.03
32197;BME280;18697;42.770;23.400;2023-01-15T01:22:51;96075.72;;;6.89;73.24
32197;BME280;18697;42.770;23.400;2023-01-15T01:25:17;96075.56;;;6.96;72.81
32197;BME280;18697;42.770;23.400;2023-01-15T01:27:45;96070.03;;;6.96;72.53
32197;BME280;18697;42.770;23.400;2023-01-15T01:30:12;96076.16;;;6.87;72.56
32197;BME280;18697;42.770;23.400;2023-01-15T01:32:38;96070.03;;;6.96;73.03
32197;BME280;18697;42.770;23.400;2023-01-15T01:35:03;96072.91;;;7.09;72.19
32197;BME280;18697;42.770;23.400;2023-01-15T01:37:29;96072.75;;;7.16;71.92
32197;BME280;18697;42.770;23.400;2023-01-15T01:39:54;96071.19;;;7.15;71.98
32197;BME280;18697;42.770;23.400;2023-01-15T01:42:21;96080.50;;;7.05;72.48
32197;BME280;18697;42.770;23.400;2023-01-15T01:47:15;96073.59;;;7.13;72.32
32197;BME280;18697;42.770;23.400;2023-01-15T01:49:45;96068.00;;;7.16;72.15
32197;BME280;18697;42.770;23.400;2023-01-15T01:52:16;96072.03;;;7.12;72.08
32197;BME280;18697;42.770;23.400;2023-01-15T01:54:45;96071.28;;;7.11;72.35
32197;BME280;18697;42.770;23.400;2023-01-15T01:57:12;96071.09;;;7.18;72.48
32197;BME280;18697;42.770;23.400;2023-01-15T01:59:38;96065.56;;;7.18;72.21
32197;BME280;18697;42.770;23.400;2023-01-15T02:02:04;96074.91;;;7.24;72.04
32197;BME280;18697;42.770;23.400;2023-01-15T02:04:30;96064.72;;;7.21;72.05
32197;BME280;18697;42.770;23.400;2023-01-15T02:06:57;96061.69;;;7.16;71.81
32197;BME280;18697;42.770;23.400;2023-01-15T02:09:24;96062.56;;;7.13;71.85
32197;BME280;18697;42.770;23.400;2023-01-15T02:11:50;96058.91;;;7.00;72.44
32197;BME280;18697;42.770;23.400;2023-01-15T02:17:01;96060.88;;;6.83;73.34
32197;BME280;18697;42.770;23.400;2023-01-15T02:19:48;96056.44;;;6.69;73.97
32197;BME280;18697;42.770;23.400;2023-01-15T02:25:11;96052.19;;;6.48;75.16
32197;BME280;18697;42.770;23.400;2023-01-15T02:27:42;96055.31;;;6.50;75.22
32197;BME280;18697;42.770;23.400;2023-01-15T02:30:44;96056.78;;;6.55;75.37
32197;BME280;18697;42.770;23.400;2023-01-15T02:33:11;96060.50;;;6.65;74.99
32197;BME280;18697;42.770;23.400;2023-01-15T02:35:43;96051.81;;;6.66;74.76
32197;BME280;18697;42.770;23.400;2023-01-15T02:38:14;96046.44;;;6.75;74.39
32197;BME280;18697;42.770;23.400;2023-01-15T02:40:42;96050.25;;;6.81;74.31
32197;BME280;18697;42.770;23.400;2023-01-15T02:43:08;96040.34;;;6.84;73.77
32197;BME280;18697;42.770;23.400;2023-01-15T02:45:38;96035.63;;;7.01;73.50
32197;BME280;18697;42.770;23.400;2023-01-15T02:48:12;96031.13;;;7.07;72.87
32197;BME280;18697;42.770;23.400;2023-01-15T02:50:43;96038.03;;;7.15;72.87
32197;BME280;18697;42.770;23.400;2023-01-15T02:53:14;96038.38;;;7.17;72.37
32197;BME280;18697;42.770;23.400;2023-01-15T02:55:46;96047.97;;;7.29;71.91
32197;BME280;18697;42.770;23.400;2023-01-15T02:58:16;96047.09;;;7.32;71.80
32197;BME280;18697;42.770;23.400;2023-01-15T03:00:46;96045.81;;;7.36;71.43
32197;BME280;18697;42.770;23.400;2023-01-15T03:06:04;96056.94;;;7.33;71.06
32197;BME280;18697;42.770;23.400;2023-01-15T03:08:32;96058.75;;;7.39;71.21
32197;BME280;18697;42.770;23.400;2023-01-15T03:11:09;96053.47;;;7.45;70.75
32197;BME280;18697;42.770;23.400;2023-01-15T03:13:47;96061.88;;;7.41;70.93
32197;BME280;18697;42.770;23.400;2023-01-15T03:19:10;96062.03;;;7.02;72.51
32197;BME280;18697;42.770;23.400;2023-01-15T03:21:49;96065.81;;;6.91;73.00
32197;BME280;18697;42.770;23.400;2023-01-15T03:24:37;96056.38;;;6.73;73.49
32197;BME280;18697;42.770;23.400;2023-01-15T03:27:04;96056.19;;;6.64;74.21
32197;BME280;18697;42.770;23.400;2023-01-15T03:29:33;96058.88;;;6.67;74.67
32197;BME280;18697;42.770;23.400;2023-01-15T03:32:01;96054.88;;;6.52;75.09
32197;BME280;18697;42.770;23.400;2023-01-15T03:34:37;96058.16;;;6.07;76.39
32197;BME280;18697;42.770;23.400;2023-01-15T03:37:04;96055.38;;;5.87;78.22
32197;BME280;18697;42.770;23.400;2023-01-15T03:39:30;96045.13;;;6.08;77.25
32197;BME280;18697;42.770;23.400;2023-01-15T03:52:44;96048.38;;;6.42;75.88
32197;BME280;18697;42.770;23.400;2023-01-15T03:55:22;96049.28;;;6.55;75.09
32197;BME280;18697;42.770;23.400;2023-01-15T03:57:57;96054.56;;;6.66;74.44
32197;BME280;18697;42.770;23.400;2023-01-15T04:00:34;96051.63;;;6.73;74.08
32197;BME280;18697;42.770;23.400;2023-01-15T04:03:01;96047.06;;;6.83;73.92
32197;BME280;18697;42.770;23.400;2023-01-15T04:05:29;96052.00;;;6.91;73.35
32197;BME280;18697;42.770;23.400;2023-01-15T04:07:56;96051.84;;;6.99;73.20
32197;BME280;18697;42.770;23.400;2023-01-15T04:10:22;96048.28;;;6.98;72.50
32197;BME280;18697;42.770;23.400;2023-01-15T04:12:48;96048.66;;;7.00;72.45
32197;BME280;18697;42.770;23.400;2023-01-15T04:15:14;96054.09;;;7.04;72.20
32197;BME280;18697;42.770;23.400;2023-01-15T04:17:39;96043.97;;;6.97;72.12
32197;BME280;18697;42.770;23.400;2023-01-15T04:20:05;96041.13;;;7.01;71.94
32197;BME280;18697;42.770;23.400;2023-01-15T04:22:31;96047.09;;;7.15;71.76
32197;BME280;18697;42.770;23.400;2023-01-15T04:24:56;96053.22;;;7.07;71.44
32197;BME280;18697;42.770;23.400;2023-01-15T04:27:22;96051.34;;;7.20;71.57
32197;BME280;18697;42.770;23.400;2023-01-15T04:29:47;96059.09;;;7.25;71.01
32197;BME280;18697;42.770;23.400;2023-01-15T04:32:13;96050.31;;;7.30;70.77
32197;BME280;18697;42.770;23.400;2023-01-15T04:34:38;96043.72;;;7.08;70.73
32197;BME280;18697;42.770;23.400;2023-01-15T04:37:04;96054.88;;;7.04;71.50
32197;BME280;18697;42.770;23.400;2023-01-15T04:39:29;96051.16;;;7.11;71.50
32197;BME280;18697;42.770;23.400;2023-01-15T04:41:55;96056.78;;;7.23;71.13
32197;BME280;18697;42.770;23.400;2023-01-15T04:44:39;96058.66;;;7.27;70.72
32197;BME280;18697;42.770;23.400;2023-01-15T04:47:04;96049.53;;;7.13;70.61
32197;BME280;18697;42.770;23.400;2023-01-15T04:49:30;96058.38;;;6.88;71.81
32197;BME280;18697;42.770;23.400;2023-01-15T04:51:55;96060.94;;;6.79;72.29
32197;BME280;18697;42.770;23.400;2023-01-15T04:54:21;96072.00;;;6.79;72.30
32197;BME280;18697;42.770;23.400;2023-01-15T04:56:49;96058.00;;;6.70;72.65
32197;BME280;18697;42.770;23.400;2023-01-15T04:59:18;96068.72;;;6.68;73.28
32197;BME280;18697;42.770;23.400;2023-01-15T05:01:45;96070.78;;;6.64;73.31
32197;BME280;18697;42.770;23.400;2023-01-15T05:04:10;96073.19;;;6.62;73.38
32197;BME280;18697;42.770;23.400;2023-01-15T05:06:35;96080.06;;;6.54;73.24
32197;BME280;18697;42.770;23.400;2023-01-15T05:09:02;96073.78;;;6.34;74.56
32197;BME280;18697;42.770;23.400;2023-01-15T05:11:28;96066.16;;;6.21;74.97
32197;BME280;18697;42.770;23.400;2023-01-15T05:13:54;96067.81;;;5.96;76.17
32197;BME280;18697;42.770;23.400;2023-01-15T05:16:25;96069.59;;;6.06;76.71
32197;BME280;18697;42.770;23.400;2023-01-15T05:18:52;96068.81;;;6.05;76.89
32197;BME280;18697;42.770;23.400;2023-01-15T05:21:26;96073.28;;;5.99;77.36
32197;BME280;18697;42.770;23.400;2023-01-15T05:23:54;96073.97;;;5.83;77.54
32197;BME280;18697;42.770;23.400;2023-01-15T05:26:21;96080.25;;;5.84;77.92
32197;BME280;18697;42.770;23.400;2023-01-15T05:28:47;96069.22;;;5.84;78.34
32197;BME280;18697;42.770;23.400;2023-01-15T05:31:16;96072.75;;;5.84;78.57
32197;BME280;18697;42.770;23.400;2023-01-15T05:33:42;96077.06;;;5.85;78.53
32197;BME280;18697;42.770;23.400;2023-01-15T05:36:16;96081.34;;;5.90;78.33
32197;BME280;18697;42.770;23.400;2023-01-15T05:38:42;96072.66;;;5.91;78.19
32197;BME280;18697;42.770;23.400;2023-01-15T05:41:10;96074.53;;;5.94;77.76
32197;BME280;18697;42.770;23.400;2023-01-15T05:43:56;96071.72;;;5.98;77.40
32197;BME280;18697;42.770;23.400;2023-01-15T05:46:23;96082.31;;;6.00;77.65
32197;BME280;18697;42.770;23.400;2023-01-15T05:48:49;96077.09;;;6.05;77.36
32197;BME280;18697;42.770;23.400;2023-01-15T05:51:14;96083.81;;;6.04;77.46
32197;BME280;18697;42.770;23.400;2023-01-15T05:53:40;96084.09;;;6.10;77.54
32197;BME280;18697;42.770;23.400;2023-01-15T05:56:05;96086.72;;;6.17;77.34
32197;BME280;18697;42.770;23.400;2023-01-15T05:58:31;96082.34;;;6.19;76.95
32197;BME280;18697;42.770;23.400;2023-01-15T06:00:57;96086.78;;;6.13;77.17
32197;BME280;18697;42.770;23.400;2023-01-15T06:03:24;96087.63;;;6.10;77.00
32197;BME280;18697;42.770;23.400;2023-01-15T06:05:54;96087.63;;;6.10;77.42
32197;BME280;18697;42.770;23.400;2023-01-15T06:08:21;96089.56;;;6.13;77.56
32197;BME280;18697;42.770;23.400;2023-01-15T06:10:47;96090.63;;;6.19;77.48
32197;BME280;18697;42.770;23.400;2023-01-15T06:13:13;96085.81;;;6.23;76.79
32197;BME280;18697;42.770;23.400;2023-01-15T06:15:39;96081.91;;;6.21;76.91
32197;BME280;18697;42.770;23.400;2023-01-15T06:18:04;96085.47;;;6.21;77.17
32197;BME280;18697;42.770;23.400;2023-01-15T06:20:30;96084.88;;;6.30;76.89
32197;BME280;18697;42.770;23.400;2023-01-15T06:22:55;96087.09;;;6.39;76.48
32197;BME280;18697;42.770;23.400;2023-01-15T06:25:21;96072.72;;;6.47;76.33
32197;BME280;18697;42.770;23.400;2023-01-15T06:27:46;96070.59;;;6.55;76.14
32197;BME280;18697;42.770;23.400;2023-01-15T06:30:14;96068.53;;;6.59;76.01
32197;BME280;18697;42.770;23.400;2023-01-15T06:32:39;96072.75;;;6.64;75.70
32197;BME280;18697;42.770;23.400;2023-01-15T06:35:05;96072.22;;;6.69;75.34
32197;BME280;18697;42.770;23.400;2023-01-15T06:37:30;96075.44;;;6.67;75.33
32197;BME280;18697;42.770;23.400;2023-01-15T06:39:56;96080.09;;;6.70;75.46
32197;BME280;18697;42.770;23.400;2023-01-15T06:42:21;96076.66;;;6.82;75.17
32197;BME280;18697;42.770;23.400;2023-01-15T06:45:07;96073.41;;;6.87;74.95
32197;BME280;18697;42.770;23.400;2023-01-15T06:47:51;96072.47;;;6.94;74.38
32197;BME280;18697;42.770;23.400;2023-01-15T06:50:16;96068.06;;;6.97;73.84
32197;BME280;18697;42.770;23.400;2023-01-15T06:52:42;96071.75;;;6.90;73.90
32197;BME280;18697;42.770;23.400;2023-01-15T06:55:08;96067.53;;;7.02;74.07
32197;BME280;18697;42.770;23.400;2023-01-15T06:57:37;96082.25;;;7.15;73.69
32197;BME280;18697;42.770;23.400;2023-01-15T07:00:03;96078.25;;;7.16;73.20
32197;BME280;18697;42.770;23.400;2023-01-15T07:02:28;96080.81;;;6.90;73.53
32197;BME280;18697;42.770;23.400;2023-01-15T07:04:53;96078.22;;;6.83;74.43
32197;BME280;18697;42.770;23.400;2023-01-15T07:07:20;96073.28;;;6.75;75.20
32197;BME280;18697;42.770;23.400;2023-01-15T07:09:46;96074.53;;;6.90;75.10
32197;BME280;18697;42.770;23.400;2023-01-15T07:12:11;96077.63;;;6.92;74.88
32197;BME280;18697;42.770;23.400;2023-01-15T07:14:36;96073.16;;;6.98;74.39
32197;BME280;18697;42.770;23.400;2023-01-15T07:17:02;96079.13;;;7.13;74.28
32197;BME280;18697;42.770;23.400;2023-01-15T07:19:27;96075.84;;;7.18;73.84
32197;BME280;18697;42.770;23.400;2023-01-15T07:21:53;96083.97;;;7.25;73.29
32197;BME280;18697;42.770;23.400;2023-01-15T07:24:18;96078.44;;;7.09;73.80
32197;BME280;18697;42.770;23.400;2023-01-15T07:26:44;96090.19;;;7.13;74.69
32197;BME280;18697;42.770;23.400;2023-01-15T07:29:10;96085.09;;;7.11;73.43
32197;BME280;18697;42.770;23.400;2023-01-15T07:31:36;96086.56;;;7.32;72.37
32197;BME280;18697;42.770;23.400;2023-01-15T07:34:02;96090.50;;;7.47;71.85
32197;BME280;18697;42.770;23.400;2023-01-15T07:36:28;96099.50;;;7.51;70.53
32197;BME280;18697;42.770;23.400;2023-01-15T07:38:53;96097.69;;;7.61;70.41
32197;BME280;18697;42.770;23.400;2023-01-15T07:41:19;96092.66;;;7.72;71.06
32197;BME280;18697;42.770;23.400;2023-01-15T07:44:03;96082.47;;;7.53;70.31
32197;BME280;18697;42.770;23.400;2023-01-15T07:46:47;96087.81;;;7.60;70.04
32197;BME280;18697;42.770;23.400;2023-01-15T07:49:31;96098.09;;;7.76;69.69
32197;BME280;18697;42.770;23.400;2023-01-15T07:52:18;96093.41;;;7.89;69.03
32197;BME280;18697;42.770;23.400;2023-01-15T07:54:45;96081.53;;;8.05;68.87
32197;BME280;18697;42.770;23.400;2023-01-15T07:57:12;96076.16;;;8.27;68.42
32197;BME280;18697;42.770;23.400;2023-01-15T07:59:39;96085.47;;;8.49;66.78
32197;BME280;18697;42.770;23.400;2023-01-15T08:02:05;96087.28;;;9.19;65.73
32197;BME280;18697;42.770;23.400;2023-01-15T08:04:30;96078.84;;;9.61;63.12
32197;BME280;18697;42.770;23.400;2023-01-15T08:06:58;96076.66;;;9.77;60.54
32197;BME280;18697;42.770;23.400;2023-01-15T08:09:23;96085.53;;;10.19;60.66
32197;BME280;18697;42.770;23.400;2023-01-15T08:11:50;96086.38;;;10.51;57.90
32197;BME280;18697;42.770;23.400;2023-01-15T08:14:51;96072.13;;;10.93;56.64
32197;BME280;18697;42.770;23.400;2023-01-15T08:17:36;96085.72;;;11.31;56.19
32197;BME280;18697;42.770;23.400;2023-01-15T08:20:03;96077.31;;;11.62;54.58
32197;BME280;18697;42.770;23.400;2023-01-15T08:22:29;96089.16;;;12.02;53.03
32197;BME280;18697;42.770;23.400;2023-01-15T08:24:54;96087.91;;;11.94;53.25
32197;BME280;18697;42.770;23.400;2023-01-15T08:27:20;96090.28;;;11.56;54.26
32197;BME280;18697;42.770;23.400;2023-01-15T08:29:45;96086.59;;;11.18;55.11
32197;BME280;18697;42.770;23.400;2023-01-15T08:32:10;96088.13;;;11.10;55.25
32197;BME280;18697;42.770;23.400;2023-01-15T08:34:35;96099.41;;;10.85;55.51
32197;BME280;18697;42.770;23.400;2023-01-15T08:37:01;96095.97;;;11.03;55.72
32197;BME280;18697;42.770;23.400;2023-01-15T08:39:26;96093.91;;;11.34;54.28
32197;BME280;18697;42.770;23.400;2023-01-15T08:41:52;96099.81;;;11.45;53.84
32197;BME280;18697;42.770;23.400;2023-01-15T08:44:18;96094.16;;;11.18;54.23
32197;BME280;18697;42.770;23.400;2023-01-15T08:46:45;96082.59;;;10.89;55.11
32197;BME280;18697;42.770;23.400;2023-01-15T08:49:11;96087.59;;;10.72;56.24
32197;BME280;18697;42.770;23.400;2023-01-15T08:51:36;96095.81;;;10.32;56.70
32197;BME280;18697;42.770;23.400;2023-01-15T08:54:02;96091.66;;;10.14;57.88
32197;BME280;18697;42.770;23.400;2023-01-15T08:56:27;96093.13;;;10.06;57.70
32197;BME280;18697;42.770;23.400;2023-01-15T08:58:53;96096.81;;;9.43;59.20
32197;BME280;18697;42.770;23.400;2023-01-15T09:01:19;96097.59;;;9.18;59.74
32197;BME280;18697;42.770;23.400;2023-01-15T09:03:44;96091.94;;;9.22;60.05
32197;BME280;18697;42.770;23.400;2023-01-15T09:06:10;96098.94;;;9.01;61.23
32197;BME280;18697;42.770;23.400;2023-01-15T09:08:38;96088.41;;;8.83;61.28
32197;BME280;18697;42.770;23.400;2023-01-15T09:11:05;96091.06;;;8.74;62.16
32197;BME280;18697;42.770;23.400;2023-01-15T09:13:31;96086.97;;;8.79;61.74
32197;BME280;18697;42.770;23.400;2023-01-15T09:16:00;96093.22;;;8.54;62.26
32197;BME280;18697;42.770;23.400;2023-01-15T09:18:27;96083.06;;;8.64;62.14
32197;BME280;18697;42.770;23.400;2023-01-15T09:20:52;96083.41;;;8.78;61.64
32197;BME280;18697;42.770;23.400;2023-01-15T09:23:18;96084.88;;;8.83;61.88
32197;BME280;18697;42.770;23.400;2023-01-15T09:28:20;96072.59;;;8.42;63.02
32197;BME280;18697;42.770;23.400;2023-01-15T09:30:47;96073.31;;;8.59;62.91
32197;BME280;18697;42.770;23.400;2023-01-15T09:33:12;96069.97;;;8.51;63.54
32197;BME280;18697;42.770;23.400;2023-01-15T09:35:38;96058.66;;;8.46;63.11
32197;BME280;18697;42.770;23.400;2023-01-15T09:38:04;96055.06;;;8.33;63.83
32197;BME280;18697;42.770;23.400;2023-01-15T09:43:08;96055.00;;;8.07;63.74
32197;BME280;18697;42.770;23.400;2023-01-15T09:45:46;96053.00;;;8.20;63.75
32197;BME280;18697;42.770;23.400;2023-01-15T09:48:46;96041.72;;;7.86;64.04
32197;BME280;18697;42.770;23.400;2023-01-15T09:56:49;96022.56;;;8.08;63.48
32197;BME280;18697;42.770;23.400;2023-01-15T09:59:31;96015.94;;;8.18;63.89
32197;BME280;18697;42.770;23.400;2023-01-15T10:01:57;96010.53;;;8.27;63.26
32197;BME280;18697;42.770;23.400;2023-01-15T10:04:33;96014.84;;;8.28;62.15
32197;BME280;18697;42.770;23.400;2023-01-15T10:07:17;96008.63;;;8.24;62.30
32197;BME280;18697;42.770;23.400;2023-01-15T10:09:55;96005.66;;;8.31;61.77
32197;BME280;18697;42.770;23.400;2023-01-15T10:12:26;96000.06;;;8.35;61.52
32197;BME280;18697;42.770;23.400;2023-01-15T10:17:48;95982.38;;;9.43;59.26
32197;BME280;18697;42.770;23.400;2023-01-15T10:26:16;95978.50;;;9.97;56.39
32197;BME280;18697;42.770;23.400;2023-01-15T10:31:47;95964.00;;;10.76;53.75
32197;BME280;18697;42.770;23.400;2023-01-15T10:36:51;95955.78;;;11.31;51.44
32197;BME280;18697;42.770;23.400;2023-01-15T10:39:46;95946.25;;;11.60;51.10
32197;BME280;18697;42.770;23.400;2023-01-15T10:45:14;95946.28;;;11.87;49.74
32197;BME280;18697;42.770;23.400;2023-01-15T10:47:43;95937.75;;;11.91;50.35
32197;BME280;18697;42.770;23.400;2023-01-15T10:50:16;95929.22;;;12.03;54.17
32197;BME280;18697;42.770;23.400;2023-01-15T10:52:46;95920.56;;;12.01;50.48
32197;BME280;18697;42.770;23.400;2023-01-15T10:55:20;95923.94;;;12.14;51.16
32197;BME280;18697;42.770;23.400;2023-01-15T11:00:49;95915.66;;;11.78;50.45
32197;BME280;18697;42.770;23.400;2023-01-15T11:03:20;95901.13;;;11.65;50.09
32197;BME280;18697;42.770;23.400;2023-01-15T11:05:47;95901.88;;;11.56;50.93
32197;BME280;18697;42.770;23.400;2023-01-15T11:08:24;95888.84;;;10.89;51.69
32197;BME280;18697;42.770;23.400;2023-01-15T11:13:55;95887.75;;;10.77;53.34
32197;BME280;18697;42.770;23.400;2023-01-15T11:16:41;95895.28;;;10.28;54.70
32197;BME280;18697;42.770;23.400;2023-01-15T11:19:30;95891.97;;;9.89;56.22
32197;BME280;18697;42.770;23.400;2023-01-15T11:22:13;95884.13;;;10.18;56.71
32197;BME280;18697;42.770;23.400;2023-01-15T11:24:59;95882.22;;;10.96;54.86
32197;BME280;18697;42.770;23.400;2023-01-15T11:27:30;95871.56;;;10.94;53.54
32197;BME280;18697;42.770;23.400;2023-01-15T11:30:01;95868.50;;;11.19;53.34
32197;BME280;18697;42.770;23.400;2023-01-15T11:32:34;95867.72;;;11.01;53.75
32197;BME280;18697;42.770;23.400;2023-01-15T11:37:33;95852.41;;;10.87;54.00
32197;BME280;18697;42.770;23.400;2023-01-15T11:40:00;95859.66;;;10.75;54.43
32197;BME280;18697;42.770;23.400;2023-01-15T11:42:30;95849.94;;;10.89;53.62
32197;BME280;18697;42.770;23.400;2023-01-15T11:45:17;95845.59;;;10.70;54.10
32197;BME280;18697;42.770;23.400;2023-01-15T11:48:01;95836.81;;;10.80;53.70
32197;BME280;18697;42.770;23.400;2023-01-15T11:50:58;95835.41;;;10.76;54.33
32197;BME280;18697;42.770;23.400;2023-01-15T11:53:31;95837.13;;;10.73;53.65
32197;BME280;18697;42.770;23.400;2023-01-15T11:55:59;95831.22;;;10.62;54.51
32197;BME280;18697;42.770;23.400;2023-01-15T11:58:32;95829.88;;;10.76;54.03
32197;BME280;18697;42.770;23.400;2023-01-15T12:00:58;95827.41;;;10.87;54.00
32197;BME280;18697;42.770;23.400;2023-01-15T12:03:26;95824.59;;;10.69;52.99
32197;BME280;18697;42.770;23.400;2023-01-15T12:06:07;95834.00;;;10.62;54.07
32197;BME280;18697;42.770;23.400;2023-01-15T12:11:50;95822.56;;;10.60;53.23
32197;BME280;18697;42.770;23.400;2023-01-15T12:15:08;95818.84;;;10.54;53.54
32197;BME280;18697;42.770;23.400;2023-01-15T12:20:24;95809.50;;;10.79;53.51
32197;BME280;18697;42.770;23.400;2023-01-15T12:28:32;95798.56;;;10.94;52.59
32197;BME280;18697;42.770;23.400;2023-01-15T12:31:13;95803.28;;;10.66;53.00
32197;BME280;18697;42.770;23.400;2023-01-15T12:36:20;95797.44;;;10.73;53.44
32197;BME280;18697;42.770;23.400;2023-01-15T12:41:37;95795.28;;;10.68;53.65
32197;BME280;18697;42.770;23.400;2023-01-15T12:44:29;95795.06;;;10.35;54.28
32197;BME280;18697;42.770;23.400;2023-01-15T12:47:19;95784.75;;;10.53;54.40
32197;BME280;18697;42.770;23.400;2023-01-15T12:49:50;95792.75;;;10.33;54.09
32197;BME280;18697;42.770;23.400;2023-01-15T12:52:25;95789.03;;;10.27;55.06
32197;BME280;18697;42.770;23.400;2023-01-15T12:57:34;95780.47;;;10.71;53.72
32197;BME280;18697;42.770;23.400;2023-01-15T13:05:57;95773.66;;;10.53;53.96
32197;BME280;18697;42.770;23.400;2023-01-15T13:08:52;95768.06;;;10.35;53.86
32197;BME280;18697;42.770;23.400;2023-01-15T13:11:18;95766.09;;;10.54;54.40
32197;BME280;18697;42.770;23.400;2023-01-15T13:13:44;95758.25;;;10.80;53.72
32197;BME280;18697;42.770;23.400;2023-01-15T13:19:37;95757.47;;;10.70;53.44
32197;BME280;18697;42.770;23.400;2023-01-15T13:22:14;95761.59;;;10.38;54.50
32197;BME280;18697;42.770;23.400;2023-01-15T13:27:33;95755.47;;;10.80;54.23
32197;BME280;18697;42.770;23.400;2023-01-15T13:32:41;95741.75;;;10.95;53.91
32197;BME280;18697;42.770;23.400;2023-01-15T13:35:19;95737.56;;;10.90;53.33
32197;BME280;18697;42.770;23.400;2023-01-15T13:37:51;95738.66;;;10.83;54.17
32197;BME280;18697;42.770;23.400;2023-01-15T13:42:48;95735.56;;;10.72;54.36
32197;BME280;18697;42.770;23.400;2023-01-15T13:47:45;95734.94;;;10.68;55.35
32197;BME280;18697;42.770;23.400;2023-01-15T13:50:17;95738.00;;;10.61;54.72
32197;BME280;18697;42.770;23.400;2023-01-15T13:52:47;95733.38;;;10.58;55.35
32197;BME280;18697;42.770;23.400;2023-01-15T13:55:25;95732.47;;;10.70;55.12
32197;BME280;18697;42.770;23.400;2023-01-15T13:57:53;95740.75;;;10.43;55.49
32197;BME280;18697;42.770;23.400;2023-01-15T14:00:32;95736.44;;;10.24;56.47
32197;BME280;18697;42.770;23.400;2023-01-15T14:03:00;95734.91;;;10.32;55.79
32197;BME280;18697;42.770;23.400;2023-01-15T14:05:32;95732.44;;;10.43;55.76
32197;BME280;18697;42.770;23.400;2023-01-15T14:07:59;95734.91;;;10.50;55.17
32197;BME280;18697;42.770;23.400;2023-01-15T14:10:34;95736.16;;;10.40;55.32
32197;BME280;18697;42.770;23.400;2023-01-15T14:13:41;95728.88;;;10.24;55.79
32197;BME280;18697;42.770;23.400;2023-01-15T14:16:24;95729.59;;;10.15;56.04
32197;BME280;18697;42.770;23.400;2023-01-15T14:27:11;95728.28;;;10.38;55.11
32197;BME280;18697;42.770;23.400;2023-01-15T14:32:45;95731.81;;;9.89;56.72
32197;BME280;18697;42.770;23.400;2023-01-15T14:35:20;95732.13;;;9.92;57.27
32197;BME280;18697;42.770;23.400;2023-01-15T14:37:56;95728.53;;;9.73;58.44
32197;BME280;18697;42.770;23.400;2023-01-15T14:40:27;95727.06;;;9.50;59.46
32197;BME280;18697;42.770;23.400;2023-01-15T14:42:55;95725.28;;;9.34;60.65
32197;BME280;18697;42.770;23.400;2023-01-15T14:45:38;95729.78;;;9.19;61.16
32197;BME280;18697;42.770;23.400;2023-01-15T14:48:09;95728.97;;;9.09;61.72
32197;BME280;18697;42.770;23.400;2023-01-15T14:50:41;95729.56;;;8.82;62.82
32197;BME280;18697;42.770;23.400;2023-01-15T15:06:44;95736.88;;;7.82;67.25
32197;BME280;18697;42.770;23.400;2023-01-15T15:09:12;95735.09;;;7.63;68.39
32197;BME280;18697;42.770;23.400;2023-01-15T15:11:45;95727.38;;;7.57;68.50
32197;BME280;18697;42.770;23.400;2023-01-15T15:14:33;95742.16;;;7.51;69.44
32197;BME280;18697;42.770;23.400;2023-01-15T15:17:03;95741.31;;;7.41;69.76
32197;BME280;18697;42.770;23.400;2023-01-15T15:19:44;95738.53;;;7.41;69.92